sensor_id;sensor_type;location;lat;lon;timestamp;P1;durP1;ratioP1;P2;durP2;ratioP2
17153;SDS011;8692;52.164;7.558;2023-06-19T00:00:33;6.85;;;6.22;;
17153;SDS011;8692;52.164;7.558;2023-06-19T00:03:01;6.60;;;6.00;;
17153;SDS011;8692;52.164;7.558;2023-06-19T00:05:29;7.28;;;6.57;;
17153;SDS011;8692;52.164;7.558;2023-06-19T00:07:57;9.20;;;6.45;;
17153;SDS011;8692;52.164;7.558;2023-06-19T00:10:25;6.97;;;6.25;;
17153;SDS011;8692;52.164;7.558;2023-06-19T00:12:53;7.43;;;6.72;;
17153;SDS011;8692;52.164;7.558;2023-06-19T00:15:21;6.65;;;6.05;;
17153;SDS011;8692;52.164;7.558;2023-06-19T00:17:50;7.65;;;6.72;;
17153;SDS011;8692;52.164;7.558;2023-06-19T00:20:18;6.18;;;5.68;;
17153;SDS011;8692;52.164;7.558;2023-06-19T00:22:46;6.93;;;6.32;;
17153;SDS011;8692;52.164;7.558;2023-06-19T00:25:18;6.70;;;5.85;;
17153;SDS011;8692;52.164;7.558;2023-06-19T00:27:46;6.70;;;6.10;;
17153;SDS011;8692;52.164;7.558;2023-06-19T00:30:14;6.68;;;6.18;;
17153;SDS011;8692;52.164;7.558;2023-06-19T00:32:43;6.72;;;6.07;;
17153;SDS011;8692;52.164;7.558;2023-06-19T00:35:17;6.63;;;6.10;;
17153;SDS011;8692;52.164;7.558;2023-06-19T00:37:46;7.03;;;6.43;;
17153;SDS011;8692;52.164;7.558;2023-06-19T00:40:19;6.50;;;5.85;;
17153;SDS011;8692;52.164;7.558;2023-06-19T00:42:53;6.70;;;6.15;;
17153;SDS011;8692;52.164;7.558;2023-06-19T00:45:21;6.93;;;6.10;;
17153;SDS011;8692;52.164;7.558;2023-06-19T00:47:50;7.13;;;6.45;;
17153;SDS011;8692;52.164;7.558;2023-06-19T00:50:20;6.93;;;6.32;;
17153;SDS011;8692;52.164;7.558;2023-06-19T00:52:49;6.93;;;6.43;;
17153;SDS011;8692;52.164;7.558;2023-06-19T00:55:17;7.35;;;6.65;;
17153;SDS011;8692;52.164;7.558;2023-06-19T00:57:46;6.60;;;6.10;;
17153;SDS011;8692;52.164;7.558;2023-06-19T01:00:15;6.25;;;5.75;;
17153;SDS011;8692;52.164;7.558;2023-06-19T01:02:44;6.78;;;6.18;;
17153;SDS011;8692;52.164;7.558;2023-06-19T01:05:13;7.28;;;6.57;;
17153;SDS011;8692;52.164;7.558;2023-06-19T01:07:44;7.00;;;6.10;;
17153;SDS011;8692;52.164;7.558;2023-06-19T01:10:17;6.15;;;5.75;;
17153;SDS011;8692;52.164;7.558;2023-06-19T01:12:50;7.47;;;6.78;;
17153;SDS011;8692;52.164;7.558;2023-06-19T01:15:23;6.57;;;6.00;;
17153;SDS011;8692;52.164;7.558;2023-06-19T01:17:53;7.03;;;6.43;;
17153;SDS011;8692;52.164;7.558;2023-06-19T01:20:22;6.88;;;6.38;;
17153;SDS011;8692;52.164;7.558;2023-06-19T01:22:52;6.28;;;5.78;;
17153;SDS011;8692;52.164;7.558;2023-06-19T01:25:23;6.90;;;6.30;;
17153;SDS011;8692;52.164;7.558;2023-06-19T01:27:51;6.63;;;6.13;;
17153;SDS011;8692;52.164;7.558;2023-06-19T01:30:19;7.03;;;6.40;;
17153;SDS011;8692;52.164;7.558;2023-06-19T01:32:50;6.43;;;5.93;;
17153;SDS011;8692;52.164;7.558;2023-06-19T01:35:25;7.15;;;6.55;;
17153;SDS011;8692;52.164;7.558;2023-06-19T01:37:58;7.22;;;6.55;;
17153;SDS011;8692;52.164;7.558;2023-06-19T01:40:28;6.63;;;6.13;;
17153;SDS011;8692;52.164;7.558;2023-06-19T01:42:59;6.43;;;5.90;;
17153;SDS011;8692;52.164;7.558;2023-06-19T01:45:28;6.03;;;5.53;;
17153;SDS011;8692;52.164;7.558;2023-06-19T01:47:59;5.80;;;5.38;;
17153;SDS011;8692;52.164;7.558;2023-06-19T01:50:27;6.72;;;6.18;;
17153;SDS011;8692;52.164;7.558;2023-06-19T01:52:55;6.97;;;6.38;;
17153;SDS011;8692;52.164;7.558;2023-06-19T01:55:24;7.03;;;6.18;;
17153;SDS011;8692;52.164;7.558;2023-06-19T01:57:52;6.53;;;5.90;;
17153;SDS011;8692;52.164;7.558;2023-06-19T02:00:20;7.43;;;6.72;;
17153;SDS011;8692;52.164;7.558;2023-06-19T02:02:48;6.78;;;6.18;;
17153;SDS011;8692;52.164;7.558;2023-06-19T02:05:17;6.95;;;6.35;;
17153;SDS011;8692;52.164;7.558;2023-06-19T02:07:45;6.80;;;6.20;;
17153;SDS011;8692;52.164;7.558;2023-06-19T02:10:14;6.30;;;5.80;;
17153;SDS011;8692;52.164;7.558;2023-06-19T02:12:44;6.97;;;6.38;;
17153;SDS011;8692;52.164;7.558;2023-06-19T02:15:12;7.05;;;6.35;;
17153;SDS011;8692;52.164;7.558;2023-06-19T02:17:40;6.75;;;6.07;;
17153;SDS011;8692;52.164;7.558;2023-06-19T02:20:09;6.20;;;5.70;;
17153;SDS011;8692;52.164;7.558;2023-06-19T02:22:38;6.30;;;5.80;;
17153;SDS011;8692;52.164;7.558;2023-06-19T02:25:06;7.00;;;6.40;;
17153;SDS011;8692;52.164;7.558;2023-06-19T02:27:35;7.07;;;6.38;;
17153;SDS011;8692;52.164;7.558;2023-06-19T02:30:05;7.13;;;6.53;;
17153;SDS011;8692;52.164;7.558;2023-06-19T02:32:33;6.68;;;6.18;;
17153;SDS011;8692;52.164;7.558;2023-06-19T02:35:02;6.65;;;6.15;;
17153;SDS011;8692;52.164;7.558;2023-06-19T02:37:32;6.50;;;6.00;;
17153;SDS011;8692;52.164;7.558;2023-06-19T02:40:02;6.75;;;6.15;;
17153;SDS011;8692;52.164;7.558;2023-06-19T02:42:31;6.18;;;5.68;;
17153;SDS011;8692;52.164;7.558;2023-06-19T02:45:00;6.38;;;5.88;;
17153;SDS011;8692;52.164;7.558;2023-06-19T02:47:31;7.15;;;6.43;;
17153;SDS011;8692;52.164;7.558;2023-06-19T02:50:00;6.70;;;6.15;;
17153;SDS011;8692;52.164;7.558;2023-06-19T02:52:30;6.63;;;6.00;;
17153;SDS011;8692;52.164;7.558;2023-06-19T02:54:58;5.57;;;5.18;;
17153;SDS011;8692;52.164;7.558;2023-06-19T02:57:26;6.38;;;5.78;;
17153;SDS011;8692;52.164;7.558;2023-06-19T02:59:54;5.57;;;5.13;;
17153;SDS011;8692;52.164;7.558;2023-06-19T03:02:22;5.90;;;5.40;;
17153;SDS011;8692;52.164;7.558;2023-06-19T03:04:52;6.03;;;5.53;;
17153;SDS011;8692;52.164;7.558;2023-06-19T03:07:20;5.47;;;4.97;;
17153;SDS011;8692;52.164;7.558;2023-06-19T03:09:48;6.43;;;5.93;;
17153;SDS011;8692;52.164;7.558;2023-06-19T03:12:15;5.53;;;5.13;;
17153;SDS011;8692;52.164;7.558;2023-06-19T03:14:43;6.07;;;5.57;;
17153;SDS011;8692;52.164;7.558;2023-06-19T03:17:12;5.53;;;5.13;;
17153;SDS011;8692;52.164;7.558;2023-06-19T03:19:40;6.35;;;5.75;;
17153;SDS011;8692;52.164;7.558;2023-06-19T03:22:09;6.80;;;6.20;;
17153;SDS011;8692;52.164;7.558;2023-06-19T03:24:37;6.17;;;5.27;;
17153;SDS011;8692;52.164;7.558;2023-06-19T03:27:15;5.50;;;5.10;;
17153;SDS011;8692;52.164;7.558;2023-06-19T03:29:43;6.13;;;5.63;;
17153;SDS011;8692;52.164;7.558;2023-06-19T03:32:16;6.27;;;5.77;;
17153;SDS011;8692;52.164;7.558;2023-06-19T03:34:46;6.47;;;5.97;;
17153;SDS011;8692;52.164;7.558;2023-06-19T03:37:16;5.80;;;5.40;;
17153;SDS011;8692;52.164;7.558;2023-06-19T03:39:46;6.37;;;5.87;;
17153;SDS011;8692;52.164;7.558;2023-06-19T03:42:14;6.73;;;6.13;;
17153;SDS011;8692;52.164;7.558;2023-06-19T03:44:42;5.90;;;5.40;;
17153;SDS011;8692;52.164;7.558;2023-06-19T03:47:10;6.47;;;5.90;;
17153;SDS011;8692;52.164;7.558;2023-06-19T03:49:38;6.03;;;5.50;;
17153;SDS011;8692;52.164;7.558;2023-06-19T03:52:07;5.67;;;5.17;;
17153;SDS011;8692;52.164;7.558;2023-06-19T03:54:37;6.03;;;5.53;;
17153;SDS011;8692;52.164;7.558;2023-06-19T03:57:05;6.30;;;5.80;;
17153;SDS011;8692;52.164;7.558;2023-06-19T03:59:34;5.93;;;5.40;;
17153;SDS011;8692;52.164;7.558;2023-06-19T04:02:02;6.30;;;5.70;;
17153;SDS011;8692;52.164;7.558;2023-06-19T04:04:31;5.87;;;5.37;;
17153;SDS011;8692;52.164;7.558;2023-06-19T04:06:59;5.47;;;5.07;;
17153;SDS011;8692;52.164;7.558;2023-06-19T04:09:27;6.20;;;5.70;;
17153;SDS011;8692;52.164;7.558;2023-06-19T04:11:56;6.63;;;6.03;;
17153;SDS011;8692;52.164;7.558;2023-06-19T04:14:24;6.60;;;6.03;;
17153;SDS011;8692;52.164;7.558;2023-06-19T04:16:54;6.10;;;5.60;;
17153;SDS011;8692;52.164;7.558;2023-06-19T04:19:22;7.67;;;6.77;;
17153;SDS011;8692;52.164;7.558;2023-06-19T04:21:50;7.90;;;6.40;;
17153;SDS011;8692;52.164;7.558;2023-06-19T04:24:18;6.55;;;6.00;;
17153;SDS011;8692;52.164;7.558;2023-06-19T04:26:46;6.37;;;5.87;;
17153;SDS011;8692;52.164;7.558;2023-06-19T04:29:15;6.83;;;6.07;;
17153;SDS011;8692;52.164;7.558;2023-06-19T04:31:44;9.07;;;6.00;;
17153;SDS011;8692;52.164;7.558;2023-06-19T04:34:15;7.93;;;6.10;;
17153;SDS011;8692;52.164;7.558;2023-06-19T04:36:43;9.47;;;6.40;;
17153;SDS011;8692;52.164;7.558;2023-06-19T04:39:11;6.30;;;5.70;;
17153;SDS011;8692;52.164;7.558;2023-06-19T04:41:39;6.87;;;5.47;;
17153;SDS011;8692;52.164;7.558;2023-06-19T04:44:08;5.30;;;4.90;;
17153;SDS011;8692;52.164;7.558;2023-06-19T04:46:40;7.40;;;6.57;;
17153;SDS011;8692;52.164;7.558;2023-06-19T04:49:09;6.70;;;6.10;;
17153;SDS011;8692;52.164;7.558;2023-06-19T04:51:37;7.83;;;6.27;;
17153;SDS011;8692;52.164;7.558;2023-06-19T04:54:05;6.60;;;6.00;;
17153;SDS011;8692;52.164;7.558;2023-06-19T04:56:33;6.30;;;5.70;;
17153;SDS011;8692;52.164;7.558;2023-06-19T04:59:01;6.27;;;5.77;;
17153;SDS011;8692;52.164;7.558;2023-06-19T05:01:29;5.67;;;5.27;;
17153;SDS011;8692;52.164;7.558;2023-06-19T05:03:58;6.50;;;5.83;;
17153;SDS011;8692;52.164;7.558;2023-06-19T05:06:26;9.80;;;5.50;;
17153;SDS011;8692;52.164;7.558;2023-06-19T05:08:54;6.57;;;5.43;;
17153;SDS011;8692;52.164;7.558;2023-06-19T05:11:22;5.43;;;4.93;;
17153;SDS011;8692;52.164;7.558;2023-06-19T05:13:50;5.80;;;5.20;;
17153;SDS011;8692;52.164;7.558;2023-06-19T05:16:18;5.17;;;4.77;;
17153;SDS011;8692;52.164;7.558;2023-06-19T05:18:46;7.00;;;4.77;;
17153;SDS011;8692;52.164;7.558;2023-06-19T05:21:16;9.03;;;5.43;;
17153;SDS011;8692;52.164;7.558;2023-06-19T05:23:44;5.03;;;4.47;;
17153;SDS011;8692;52.164;7.558;2023-06-19T05:26:16;5.30;;;4.80;;
17153;SDS011;8692;52.164;7.558;2023-06-19T05:28:44;5.03;;;4.47;;
17153;SDS011;8692;52.164;7.558;2023-06-19T05:31:12;5.30;;;4.70;;
17153;SDS011;8692;52.164;7.558;2023-06-19T05:33:40;4.87;;;4.37;;
17153;SDS011;8692;52.164;7.558;2023-06-19T05:36:08;7.10;;;4.63;;
17153;SDS011;8692;52.164;7.558;2023-06-19T05:38:38;7.07;;;4.27;;
17153;SDS011;8692;52.164;7.558;2023-06-19T05:41:06;6.07;;;4.33;;
17153;SDS011;8692;52.164;7.558;2023-06-19T05:43:34;4.53;;;4.13;;
17153;SDS011;8692;52.164;7.558;2023-06-19T05:46:02;4.43;;;4.03;;
17153;SDS011;8692;52.164;7.558;2023-06-19T05:48:30;9.57;;;4.87;;
17153;SDS011;8692;52.164;7.558;2023-06-19T05:50:58;6.57;;;4.13;;
17153;SDS011;8692;52.164;7.558;2023-06-19T05:53:26;4.68;;;4.28;;
17153;SDS011;8692;52.164;7.558;2023-06-19T05:55:55;6.73;;;3.97;;
17153;SDS011;8692;52.164;7.558;2023-06-19T05:58:24;6.80;;;3.73;;
17153;SDS011;8692;52.164;7.558;2023-06-19T06:00:52;5.00;;;3.23;;
17153;SDS011;8692;52.164;7.558;2023-06-19T06:03:24;3.80;;;3.40;;
17153;SDS011;8692;52.164;7.558;2023-06-19T06:05:54;8.23;;;3.93;;
17153;SDS011;8692;52.164;7.558;2023-06-19T06:08:28;4.87;;;3.17;;
17153;SDS011;8692;52.164;7.558;2023-06-19T06:10:58;4.10;;;3.70;;
17153;SDS011;8692;52.164;7.558;2023-06-19T06:13:26;4.80;;;3.20;;
17153;SDS011;8692;52.164;7.558;2023-06-19T06:15:54;5.45;;;2.80;;
17153;SDS011;8692;52.164;7.558;2023-06-19T06:18:22;13.93;;;3.97;;
17153;SDS011;8692;52.164;7.558;2023-06-19T06:20:50;3.15;;;2.92;;
17153;SDS011;8692;52.164;7.558;2023-06-19T06:23:18;3.47;;;2.87;;
17153;SDS011;8692;52.164;7.558;2023-06-19T06:25:46;3.00;;;2.78;;
17153;SDS011;8692;52.164;7.558;2023-06-19T06:28:15;3.88;;;2.75;;
17153;SDS011;8692;52.164;7.558;2023-06-19T06:30:43;5.78;;;3.63;;
17153;SDS011;8692;52.164;7.558;2023-06-19T06:33:11;7.50;;;3.20;;
17153;SDS011;8692;52.164;7.558;2023-06-19T06:35:39;5.18;;;3.22;;
17153;SDS011;8692;52.164;7.558;2023-06-19T06:38:07;4.18;;;3.67;;
17153;SDS011;8692;52.164;7.558;2023-06-19T06:40:35;4.22;;;3.83;;
17153;SDS011;8692;52.164;7.558;2023-06-19T06:43:03;3.85;;;3.35;;
17153;SDS011;8692;52.164;7.558;2023-06-19T06:45:33;3.95;;;3.65;;
17153;SDS011;8692;52.164;7.558;2023-06-19T06:48:04;6.30;;;3.53;;
17153;SDS011;8692;52.164;7.558;2023-06-19T06:50:32;3.75;;;3.40;;
17153;SDS011;8692;52.164;7.558;2023-06-19T06:53:00;4.13;;;3.70;;
17153;SDS011;8692;52.164;7.558;2023-06-19T06:55:28;5.70;;;3.30;;
17153;SDS011;8692;52.164;7.558;2023-06-19T06:57:56;5.27;;;3.13;;
17153;SDS011;8692;52.164;7.558;2023-06-19T07:00:24;3.92;;;2.72;;
17153;SDS011;8692;52.164;7.558;2023-06-19T07:02:53;3.30;;;3.00;;
17153;SDS011;8692;52.164;7.558;2023-06-19T07:05:21;3.30;;;3.00;;
17153;SDS011;8692;52.164;7.558;2023-06-19T07:07:49;4.00;;;3.25;;
17153;SDS011;8692;52.164;7.558;2023-06-19T07:10:17;3.22;;;2.78;;
17153;SDS011;8692;52.164;7.558;2023-06-19T07:12:46;4.40;;;3.40;;
17153;SDS011;8692;52.164;7.558;2023-06-19T07:15:15;4.35;;;3.47;;
17153;SDS011;8692;52.164;7.558;2023-06-19T07:17:43;4.70;;;3.10;;
17153;SDS011;8692;52.164;7.558;2023-06-19T07:20:13;3.85;;;3.38;;
17153;SDS011;8692;52.164;7.558;2023-06-19T07:22:42;4.03;;;3.13;;
17153;SDS011;8692;52.164;7.558;2023-06-19T07:25:10;3.15;;;2.95;;
17153;SDS011;8692;52.164;7.558;2023-06-19T07:27:39;3.35;;;2.90;;
17153;SDS011;8692;52.164;7.558;2023-06-19T07:30:11;3.67;;;2.88;;
17153;SDS011;8692;52.164;7.558;2023-06-19T07:32:42;3.22;;;2.92;;
17153;SDS011;8692;52.164;7.558;2023-06-19T07:35:10;2.88;;;2.58;;
17153;SDS011;8692;52.164;7.558;2023-06-19T07:37:39;3.95;;;2.70;;
17153;SDS011;8692;52.164;7.558;2023-06-19T07:40:08;3.38;;;2.75;;
17153;SDS011;8692;52.164;7.558;2023-06-19T07:42:37;3.60;;;2.63;;
17153;SDS011;8692;52.164;7.558;2023-06-19T07:45:09;2.88;;;2.58;;
17153;SDS011;8692;52.164;7.558;2023-06-19T07:47:38;4.43;;;2.50;;
17153;SDS011;8692;52.164;7.558;2023-06-19T07:50:06;2.42;;;2.22;;
17153;SDS011;8692;52.164;7.558;2023-06-19T07:52:35;3.38;;;2.38;;
17153;SDS011;8692;52.164;7.558;2023-06-19T07:55:04;3.00;;;2.70;;
17153;SDS011;8692;52.164;7.558;2023-06-19T07:57:33;3.25;;;2.80;;
17153;SDS011;8692;52.164;7.558;2023-06-19T08:00:04;3.37;;;2.50;;
17153;SDS011;8692;52.164;7.558;2023-06-19T08:02:37;3.40;;;2.60;;
17153;SDS011;8692;52.164;7.558;2023-06-19T08:05:06;2.95;;;2.75;;
17153;SDS011;8692;52.164;7.558;2023-06-19T08:07:35;2.78;;;2.58;;
17153;SDS011;8692;52.164;7.558;2023-06-19T08:10:06;4.72;;;3.45;;
17153;SDS011;8692;52.164;7.558;2023-06-19T08:12:41;3.38;;;2.30;;
17153;SDS011;8692;52.164;7.558;2023-06-19T08:15:10;3.55;;;3.00;;
17153;SDS011;8692;52.164;7.558;2023-06-19T08:17:40;7.03;;;2.78;;
17153;SDS011;8692;52.164;7.558;2023-06-19T08:20:08;3.70;;;2.85;;
17153;SDS011;8692;52.164;7.558;2023-06-19T08:22:36;3.35;;;3.05;;
17153;SDS011;8692;52.164;7.558;2023-06-19T08:25:06;3.60;;;2.40;;
17153;SDS011;8692;52.164;7.558;2023-06-19T08:27:35;3.22;;;2.60;;
17153;SDS011;8692;52.164;7.558;2023-06-19T08:30:03;3.30;;;3.03;;
17153;SDS011;8692;52.164;7.558;2023-06-19T08:32:31;3.20;;;2.67;;
17153;SDS011;8692;52.164;7.558;2023-06-19T08:35:01;3.40;;;3.10;;
17153;SDS011;8692;52.164;7.558;2023-06-19T08:37:29;4.50;;;2.77;;
17153;SDS011;8692;52.164;7.558;2023-06-19T08:39:57;3.40;;;3.10;;
17153;SDS011;8692;52.164;7.558;2023-06-19T08:42:27;3.08;;;2.88;;
17153;SDS011;8692;52.164;7.558;2023-06-19T08:44:55;4.53;;;2.72;;
17153;SDS011;8692;52.164;7.558;2023-06-19T08:47:28;3.50;;;2.72;;
17153;SDS011;8692;52.164;7.558;2023-06-19T08:49:56;3.08;;;2.78;;
17153;SDS011;8692;52.164;7.558;2023-06-19T08:52:28;2.83;;;2.63;;
17153;SDS011;8692;52.164;7.558;2023-06-19T08:54:56;2.58;;;2.38;;
17153;SDS011;8692;52.164;7.558;2023-06-19T08:57:33;2.58;;;2.38;;
17153;SDS011;8692;52.164;7.558;2023-06-19T09:00:02;2.65;;;2.45;;
17153;SDS011;8692;52.164;7.558;2023-06-19T09:02:36;4.75;;;2.13;;
17153;SDS011;8692;52.164;7.558;2023-06-19T09:05:13;5.70;;;2.65;;
17153;SDS011;8692;52.164;7.558;2023-06-19T09:07:42;3.17;;;2.25;;
17153;SDS011;8692;52.164;7.558;2023-06-19T09:10:11;4.07;;;2.72;;
17153;SDS011;8692;52.164;7.558;2023-06-19T09:12:43;4.60;;;2.65;;
17153;SDS011;8692;52.164;7.558;2023-06-19T09:15:11;3.83;;;2.35;;
17153;SDS011;8692;52.164;7.558;2023-06-19T09:17:40;2.15;;;2.00;;
17153;SDS011;8692;52.164;7.558;2023-06-19T09:20:25;2.30;;;2.08;;
17153;SDS011;8692;52.164;7.558;2023-06-19T09:22:54;3.35;;;2.42;;
17153;SDS011;8692;52.164;7.558;2023-06-19T09:25:22;3.05;;;2.20;;
17153;SDS011;8692;52.164;7.558;2023-06-19T09:27:54;2.38;;;2.17;;
17153;SDS011;8692;52.164;7.558;2023-06-19T09:30:22;6.97;;;2.58;;
17153;SDS011;8692;52.164;7.558;2023-06-19T09:32:51;2.75;;;2.30;;
17153;SDS011;8692;52.164;7.558;2023-06-19T09:35:19;2.20;;;2.10;;
17153;SDS011;8692;52.164;7.558;2023-06-19T09:37:47;2.80;;;2.00;;
17153;SDS011;8692;52.164;7.558;2023-06-19T09:40:17;2.53;;;2.20;;
17153;SDS011;8692;52.164;7.558;2023-06-19T09:42:46;4.18;;;1.90;;
17153;SDS011;8692;52.164;7.558;2023-06-19T09:45:24;4.32;;;2.50;;
17153;SDS011;8692;52.164;7.558;2023-06-19T09:47:56;4.15;;;2.17;;
17153;SDS011;8692;52.164;7.558;2023-06-19T09:50:44;2.17;;;1.98;;
17153;SDS011;8692;52.164;7.558;2023-06-19T09:53:26;3.83;;;2.00;;
17153;SDS011;8692;52.164;7.558;2023-06-19T09:55:54;2.53;;;2.08;;
17153;SDS011;8692;52.164;7.558;2023-06-19T09:58:23;3.42;;;2.08;;
17153;SDS011;8692;52.164;7.558;2023-06-19T10:00:53;3.33;;;2.20;;
17153;SDS011;8692;52.164;7.558;2023-06-19T10:03:29;2.38;;;2.13;;
17153;SDS011;8692;52.164;7.558;2023-06-19T10:05:58;3.53;;;2.80;;
17153;SDS011;8692;52.164;7.558;2023-06-19T10:08:27;2.40;;;1.92;;
17153;SDS011;8692;52.164;7.558;2023-06-19T10:10:57;8.00;;;2.28;;
17153;SDS011;8692;52.164;7.558;2023-06-19T10:13:32;3.10;;;1.98;;
17153;SDS011;8692;52.164;7.558;2023-06-19T10:16:02;3.47;;;2.13;;
17153;SDS011;8692;52.164;7.558;2023-06-19T10:18:31;2.47;;;2.28;;
17153;SDS011;8692;52.164;7.558;2023-06-19T10:21:00;3.25;;;1.92;;
17153;SDS011;8692;52.164;7.558;2023-06-19T10:23:28;4.15;;;2.45;;
17153;SDS011;8692;52.164;7.558;2023-06-19T10:25:57;2.58;;;2.17;;
17153;SDS011;8692;52.164;7.558;2023-06-19T10:28:29;2.60;;;2.25;;
17153;SDS011;8692;52.164;7.558;2023-06-19T10:31:01;4.47;;;2.17;;
17153;SDS011;8692;52.164;7.558;2023-06-19T10:33:32;2.58;;;2.10;;
17153;SDS011;8692;52.164;7.558;2023-06-19T10:36:13;2.95;;;2.10;;
17153;SDS011;8692;52.164;7.558;2023-06-19T10:38:42;3.22;;;2.20;;
17153;SDS011;8692;52.164;7.558;2023-06-19T10:41:14;2.50;;;2.30;;
17153;SDS011;8692;52.164;7.558;2023-06-19T10:43:52;2.78;;;2.47;;
17153;SDS011;8692;52.164;7.558;2023-06-19T10:46:22;2.35;;;2.17;;
17153;SDS011;8692;52.164;7.558;2023-06-19T10:48:51;3.80;;;2.30;;
17153;SDS011;8692;52.164;7.558;2023-06-19T10:51:22;3.00;;;1.90;;
17153;SDS011;8692;52.164;7.558;2023-06-19T10:53:52;2.45;;;2.13;;
17153;SDS011;8692;52.164;7.558;2023-06-19T10:56:21;4.00;;;2.28;;
17153;SDS011;8692;52.164;7.558;2023-06-19T10:58:56;4.13;;;2.33;;
17153;SDS011;8692;52.164;7.558;2023-06-19T11:01:32;2.50;;;1.92;;
17153;SDS011;8692;52.164;7.558;2023-06-19T11:04:04;5.25;;;2.40;;
17153;SDS011;8692;52.164;7.558;2023-06-19T11:06:34;2.53;;;2.28;;
17153;SDS011;8692;52.164;7.558;2023-06-19T11:09:02;3.15;;;2.47;;
17153;SDS011;8692;52.164;7.558;2023-06-19T11:11:35;3.38;;;2.33;;
17153;SDS011;8692;52.164;7.558;2023-06-19T11:14:04;3.25;;;2.50;;
17153;SDS011;8692;52.164;7.558;2023-06-19T11:16:33;3.22;;;2.35;;
17153;SDS011;8692;52.164;7.558;2023-06-19T11:19:02;3.20;;;2.90;;
17153;SDS011;8692;52.164;7.558;2023-06-19T11:21:30;3.25;;;2.53;;
17153;SDS011;8692;52.164;7.558;2023-06-19T11:24:01;2.58;;;2.38;;
17153;SDS011;8692;52.164;7.558;2023-06-19T11:26:29;3.05;;;2.72;;
17153;SDS011;8692;52.164;7.558;2023-06-19T11:28:57;3.42;;;2.40;;
17153;SDS011;8692;52.164;7.558;2023-06-19T11:31:26;3.13;;;2.83;;
17153;SDS011;8692;52.164;7.558;2023-06-19T11:33:59;5.65;;;3.53;;
17153;SDS011;8692;52.164;7.558;2023-06-19T11:36:28;3.20;;;3.00;;
17153;SDS011;8692;52.164;7.558;2023-06-19T11:38:56;3.50;;;3.20;;
17153;SDS011;8692;52.164;7.558;2023-06-19T11:41:26;5.55;;;3.40;;
17153;SDS011;8692;52.164;7.558;2023-06-19T11:43:59;4.57;;;3.75;;
17153;SDS011;8692;52.164;7.558;2023-06-19T11:46:30;4.10;;;2.97;;
17153;SDS011;8692;52.164;7.558;2023-06-19T11:49:13;3.40;;;3.08;;
17153;SDS011;8692;52.164;7.558;2023-06-19T11:51:43;3.50;;;3.20;;
17153;SDS011;8692;52.164;7.558;2023-06-19T11:54:12;4.18;;;3.42;;
17153;SDS011;8692;52.164;7.558;2023-06-19T11:56:42;4.35;;;3.15;;
17153;SDS011;8692;52.164;7.558;2023-06-19T11:59:10;3.40;;;3.10;;
17153;SDS011;8692;52.164;7.558;2023-06-19T12:01:38;4.07;;;3.45;;
17153;SDS011;8692;52.164;7.558;2023-06-19T12:04:06;7.50;;;3.80;;
17153;SDS011;8692;52.164;7.558;2023-06-19T12:06:35;5.55;;;3.20;;
17153;SDS011;8692;52.164;7.558;2023-06-19T12:09:03;4.55;;;3.58;;
17153;SDS011;8692;52.164;7.558;2023-06-19T12:11:32;4.47;;;3.40;;
17153;SDS011;8692;52.164;7.558;2023-06-19T12:14:00;3.63;;;3.33;;
17153;SDS011;8692;52.164;7.558;2023-06-19T12:16:28;3.97;;;3.10;;
17153;SDS011;8692;52.164;7.558;2023-06-19T12:18:56;3.92;;;3.50;;
17153;SDS011;8692;52.164;7.558;2023-06-19T12:21:24;3.72;;;3.38;;
17153;SDS011;8692;52.164;7.558;2023-06-19T12:24:06;3.60;;;3.30;;
17153;SDS011;8692;52.164;7.558;2023-06-19T12:26:34;3.83;;;3.42;;
17153;SDS011;8692;52.164;7.558;2023-06-19T12:29:03;4.30;;;3.65;;
17153;SDS011;8692;52.164;7.558;2023-06-19T12:31:31;5.38;;;3.72;;
17153;SDS011;8692;52.164;7.558;2023-06-19T12:34:00;4.25;;;3.60;;
17153;SDS011;8692;52.164;7.558;2023-06-19T12:36:48;4.43;;;3.60;;
17153;SDS011;8692;52.164;7.558;2023-06-19T12:39:17;3.95;;;3.60;;
17153;SDS011;8692;52.164;7.558;2023-06-19T12:41:46;11.55;;;4.20;;
17153;SDS011;8692;52.164;7.558;2023-06-19T12:44:13;5.85;;;3.80;;
17153;SDS011;8692;52.164;7.558;2023-06-19T12:46:41;3.85;;;3.55;;
17153;SDS011;8692;52.164;7.558;2023-06-19T12:49:10;4.50;;;3.60;;
17153;SDS011;8692;52.164;7.558;2023-06-19T12:51:37;5.72;;;4.15;;
17153;SDS011;8692;52.164;7.558;2023-06-19T12:54:06;6.35;;;3.95;;
17153;SDS011;8692;52.164;7.558;2023-06-19T12:56:35;4.25;;;3.67;;
17153;SDS011;8692;52.164;7.558;2023-06-19T12:59:03;3.45;;;3.20;;
17153;SDS011;8692;52.164;7.558;2023-06-19T13:01:31;5.97;;;4.53;;
17153;SDS011;8692;52.164;7.558;2023-06-19T13:03:59;4.80;;;3.50;;
17153;SDS011;8692;52.164;7.558;2023-06-19T13:06:27;5.25;;;3.90;;
17153;SDS011;8692;52.164;7.558;2023-06-19T13:08:55;8.40;;;3.70;;
17153;SDS011;8692;52.164;7.558;2023-06-19T13:11:23;5.38;;;4.72;;
17153;SDS011;8692;52.164;7.558;2023-06-19T13:13:53;5.10;;;4.38;;
17153;SDS011;8692;52.164;7.558;2023-06-19T13:16:21;6.60;;;4.75;;
17153;SDS011;8692;52.164;7.558;2023-06-19T13:19:11;5.75;;;4.75;;
17153;SDS011;8692;52.164;7.558;2023-06-19T13:21:39;7.45;;;4.38;;
17153;SDS011;8692;52.164;7.558;2023-06-19T13:24:08;4.65;;;4.28;;
17153;SDS011;8692;52.164;7.558;2023-06-19T13:26:36;7.03;;;4.53;;
17153;SDS011;8692;52.164;7.558;2023-06-19T13:29:05;5.38;;;4.88;;
17153;SDS011;8692;52.164;7.558;2023-06-19T13:31:33;5.05;;;4.53;;
17153;SDS011;8692;52.164;7.558;2023-06-19T13:34:01;8.00;;;4.60;;
17153;SDS011;8692;52.164;7.558;2023-06-19T13:36:29;11.23;;;5.30;;
17153;SDS011;8692;52.164;7.558;2023-06-19T13:38:57;5.28;;;4.78;;
17153;SDS011;8692;52.164;7.558;2023-06-19T13:41:25;5.25;;;4.85;;
17153;SDS011;8692;52.164;7.558;2023-06-19T13:43:54;5.07;;;4.55;;
17153;SDS011;8692;52.164;7.558;2023-06-19T13:46:23;6.38;;;4.65;;
17153;SDS011;8692;52.164;7.558;2023-06-19T13:48:52;7.88;;;4.68;;
17153;SDS011;8692;52.164;7.558;2023-06-19T13:51:20;6.88;;;4.90;;
17153;SDS011;8692;52.164;7.558;2023-06-19T13:53:49;5.85;;;5.03;;
17153;SDS011;8692;52.164;7.558;2023-06-19T13:56:17;6.68;;;4.70;;
17153;SDS011;8692;52.164;7.558;2023-06-19T13:58:45;5.22;;;4.72;;
17153;SDS011;8692;52.164;7.558;2023-06-19T14:01:13;5.50;;;5.00;;
17153;SDS011;8692;52.164;7.558;2023-06-19T14:03:43;6.07;;;4.93;;
17153;SDS011;8692;52.164;7.558;2023-06-19T14:06:11;5.05;;;4.53;;
17153;SDS011;8692;52.164;7.558;2023-06-19T14:08:39;5.28;;;4.68;;
17153;SDS011;8692;52.164;7.558;2023-06-19T14:11:07;5.50;;;5.00;;
17153;SDS011;8692;52.164;7.558;2023-06-19T14:13:35;5.90;;;4.78;;
17153;SDS011;8692;52.164;7.558;2023-06-19T14:16:03;7.25;;;5.03;;
17153;SDS011;8692;52.164;7.558;2023-06-19T14:18:31;5.65;;;4.50;;
17153;SDS011;8692;52.164;7.558;2023-06-19T14:21:02;5.10;;;4.70;;
17153;SDS011;8692;52.164;7.558;2023-06-19T14:23:31;5.22;;;4.72;;
17153;SDS011;8692;52.164;7.558;2023-06-19T14:26:00;5.38;;;4.85;;
17153;SDS011;8692;52.164;7.558;2023-06-19T14:28:28;5.75;;;4.80;;
17153;SDS011;8692;52.164;7.558;2023-06-19T14:30:56;8.73;;;5.35;;
17153;SDS011;8692;52.164;7.558;2023-06-19T14:33:24;8.50;;;4.70;;
17153;SDS011;8692;52.164;7.558;2023-06-19T14:35:52;5.63;;;4.97;;
17153;SDS011;8692;52.164;7.558;2023-06-19T14:38:21;5.85;;;5.25;;
17153;SDS011;8692;52.164;7.558;2023-06-19T14:40:51;8.13;;;5.18;;
17153;SDS011;8692;52.164;7.558;2023-06-19T14:43:19;5.50;;;5.03;;
17153;SDS011;8692;52.164;7.558;2023-06-19T14:45:47;5.78;;;5.05;;
17153;SDS011;8692;52.164;7.558;2023-06-19T14:48:15;5.43;;;5.03;;
17153;SDS011;8692;52.164;7.558;2023-06-19T14:50:43;5.50;;;4.97;;
17153;SDS011;8692;52.164;7.558;2023-06-19T14:53:11;5.63;;;5.13;;
17153;SDS011;8692;52.164;7.558;2023-06-19T14:55:41;6.15;;;5.28;;
17153;SDS011;8692;52.164;7.558;2023-06-19T14:58:12;5.53;;;5.13;;
17153;SDS011;8692;52.164;7.558;2023-06-19T15:00:40;7.50;;;5.50;;
17153;SDS011;8692;52.164;7.558;2023-06-19T15:03:08;6.68;;;5.75;;
17153;SDS011;8692;52.164;7.558;2023-06-19T15:05:38;6.20;;;5.15;;
17153;SDS011;8692;52.164;7.558;2023-06-19T15:08:06;5.80;;;5.20;;
17153;SDS011;8692;52.164;7.558;2023-06-19T15:10:36;8.75;;;4.82;;
17153;SDS011;8692;52.164;7.558;2023-06-19T15:13:05;5.38;;;4.97;;